createdAt,value
2019-03-24T00:04:06.225Z,101276.20
2019-03-24T00:06:35.685Z,101271.33
2019-03-24T00:09:06.818Z,101269.50
2019-03-24T00:11:36.275Z,101267.84
2019-03-24T00:14:08.705Z,101265.86
2019-03-24T00:16:38.177Z,101263.83
2019-03-24T00:19:07.634Z,101264.69
2019-03-24T00:21:37.102Z,101263.25
2019-03-24T00:24:06.588Z,101261.70
2019-03-24T00:26:36.141Z,101260.73
2019-03-24T00:29:05.607Z,101264.00
2019-03-24T00:31:35.419Z,101261.64
2019-03-24T00:34:04.909Z,101259.72
2019-03-24T00:36:34.366Z,101254.78
2019-03-24T00:39:05.112Z,101259.34
2019-03-24T00:41:34.946Z,101253.06
2019-03-24T00:44:04.407Z,101252.69
2019-03-24T00:46:33.874Z,101244.42
2019-03-24T00:49:03.795Z,101248.88
2019-03-24T00:51:33.302Z,101249.98
2019-03-24T00:54:02.721Z,101242.66
2019-03-24T00:56:32.174Z,101242.42
2019-03-24T00:59:01.651Z,101242.32
2019-03-24T01:01:31.106Z,101241.06
2019-03-24T01:04:00.715Z,101245.23
2019-03-24T01:06:30.198Z,101235.58
2019-03-24T01:08:59.669Z,101235.84
2019-03-24T01:11:29.157Z,101234.39
2019-03-24T01:13:59.455Z,101229.65
2019-03-24T01:16:31.478Z,101228.56
2019-03-24T01:19:01.841Z,101225.99
2019-03-24T01:21:31.320Z,101230.63
2019-03-24T01:24:01.071Z,101227.38
2019-03-24T01:26:30.886Z,101226.73
2019-03-24T01:29:00.337Z,101222.08
2019-03-24T01:31:29.826Z,101219.14
2019-03-24T01:33:59.285Z,101222.42
2019-03-24T01:36:29.008Z,101220.96
2019-03-24T01:38:58.630Z,101222.53
2019-03-24T01:41:28.106Z,101225.09
2019-03-24T01:43:57.564Z,101230.10
2019-03-24T01:46:27.193Z,101220.96
2019-03-24T01:48:56.952Z,101217.64
2019-03-24T01:51:26.432Z,101219.73
2019-03-24T01:53:55.895Z,101222.16
2019-03-24T01:56:25.350Z,101225.59
2019-03-24T01:58:54.908Z,101224.13
2019-03-24T02:01:24.385Z,101220.92
2019-03-24T02:03:54.118Z,101219.47
2019-03-24T02:06:23.795Z,101218.61
2019-03-24T02:08:53.437Z,101218.50
2019-03-24T02:11:23.347Z,101220.22
2019-03-24T02:13:53.339Z,101219.36
2019-03-24T02:16:23.257Z,101217.42
2019-03-24T02:18:53.276Z,101212.53
2019-03-24T02:21:23.292Z,101211.91
2019-03-24T02:23:53.105Z,101210.93
2019-03-24T02:26:22.738Z,101204.44
2019-03-24T02:28:52.475Z,101201.98
2019-03-24T02:31:22.213Z,101200.53
2019-03-24T02:33:51.693Z,101201.27
2019-03-24T02:36:21.561Z,101198.33
2019-03-24T02:38:51.386Z,101198.22
2019-03-24T02:41:21.203Z,101195.16
2019-03-24T02:43:50.651Z,101189.45
2019-03-24T02:46:24.556Z,101192.63
2019-03-24T02:48:51.570Z,101184.91
2019-03-24T02:51:21.044Z,101189.30
2019-03-24T02:53:50.629Z,101190.42
2019-03-24T02:56:20.100Z,101188.70
2019-03-24T02:58:49.550Z,101190.05
2019-03-24T03:01:19.031Z,101193.25
2019-03-24T03:03:48.481Z,101192.99
2019-03-24T03:06:17.941Z,101186.88
2019-03-24T03:08:47.589Z,101184.67
2019-03-24T03:11:18.435Z,101181.88
2019-03-24T03:13:47.907Z,101173.80
2019-03-24T03:16:17.370Z,101175.25
2019-03-24T03:18:46.841Z,101177.67
2019-03-24T03:21:16.326Z,101181.36
2019-03-24T03:23:45.824Z,101188.15
2019-03-24T03:26:15.278Z,101181.44
2019-03-24T03:28:44.733Z,101185.95
2019-03-24T03:31:14.224Z,101179.46
2019-03-24T03:33:43.690Z,101177.89
2019-03-24T03:36:13.497Z,101174.16
2019-03-24T03:38:42.961Z,101173.31
2019-03-24T03:41:12.497Z,101172.67
2019-03-24T03:43:41.942Z,101172.67
2019-03-24T03:46:11.406Z,101175.24
2019-03-24T03:48:41.245Z,101168.27
2019-03-24T03:51:10.726Z,101167.08
2019-03-24T03:53:40.571Z,101172.04
2019-03-24T03:56:10.319Z,101168.98
2019-03-24T03:58:39.796Z,101170.31
2019-03-24T04:01:09.282Z,101165.87
2019-03-24T04:03:39.401Z,101161.41
2019-03-24T04:06:08.859Z,101160.81
2019-03-24T04:08:38.338Z,101160.19
2019-03-24T04:11:07.982Z,101158.98
2019-03-24T04:13:37.442Z,101154.59
2019-03-24T04:16:06.941Z,101152.52
2019-03-24T04:18:47.819Z,101156.75
2019-03-24T04:21:39.103Z,101151.41
2019-03-24T04:24:21.076Z,101159.02
2019-03-24T04:27:02.886Z,101149.20
2019-03-24T04:29:43.849Z,101147.97
2019-03-24T04:32:26.217Z,101146.69
2019-03-24T04:35:08.108Z,101147.44
2019-03-24T04:38:00.906Z,101141.75
2019-03-24T04:40:33.163Z,101142.98
2019-03-24T04:43:02.894Z,101141.47
2019-03-24T04:45:32.512Z,101142.85
2019-03-24T04:48:01.979Z,101138.08
2019-03-24T04:50:31.561Z,101142.17
2019-03-24T04:53:01.193Z,101133.97
2019-03-24T04:55:30.720Z,101133.27
2019-03-24T04:58:00.564Z,101133.91
2019-03-24T05:00:37.759Z,101134.66
2019-03-24T05:03:07.216Z,101131.53
2019-03-24T05:05:37.388Z,101128.63
2019-03-24T05:08:07.511Z,101131.64
2019-03-24T05:10:36.957Z,101133.69
2019-03-24T05:13:06.417Z,101141.63
2019-03-24T05:15:35.863Z,101137.22
2019-03-24T05:18:05.325Z,101131.00
2019-03-24T05:20:34.784Z,101123.70
2019-03-24T05:23:04.258Z,101131.75
2019-03-24T05:25:33.721Z,101127.72
2019-03-24T05:28:03.546Z,101125.64
2019-03-24T05:30:33.005Z,101120.53
2019-03-24T05:33:02.458Z,101117.03
2019-03-24T05:35:31.911Z,101114.09
2019-03-24T05:38:01.418Z,101117.41
2019-03-24T05:40:30.863Z,101107.34
2019-03-24T05:43:00.331Z,101111.28
2019-03-24T05:45:29.789Z,101105.84
2019-03-24T05:47:59.596Z,101109.65
2019-03-24T05:50:29.049Z,101108.45
2019-03-24T05:52:58.519Z,101112.99
2019-03-24T05:55:28.216Z,101111.39
2019-03-24T05:57:58.030Z,101105.03
2019-03-24T06:00:27.489Z,101115.05
2019-03-24T06:02:57.394Z,101111.87
2019-03-24T06:05:26.831Z,101112.63
2019-03-24T06:07:56.299Z,101110.91
2019-03-24T06:10:25.790Z,101111.42
2019-03-24T06:12:55.618Z,101110.31
2019-03-24T06:15:25.082Z,101120.93
2019-03-24T06:17:54.620Z,101122.27
2019-03-24T06:20:24.084Z,101116.16
2019-03-24T06:22:53.543Z,101113.99
2019-03-24T06:25:23.018Z,101115.59
2019-03-24T06:27:52.481Z,101116.68
2019-03-24T06:30:22.812Z,101117.64
2019-03-24T06:32:52.277Z,101110.84
2019-03-24T06:35:21.828Z,101118.19
2019-03-24T06:37:51.277Z,101117.33
2019-03-24T06:40:20.732Z,101116.01
2019-03-24T06:42:50.215Z,101119.66
2019-03-24T06:45:27.915Z,101116.23
2019-03-24T06:47:57.955Z,101111.52
2019-03-24T06:50:21.982Z,101111.05
2019-03-24T06:52:51.770Z,101111.30
2019-03-24T06:55:21.582Z,101113.23
2019-03-24T06:57:51.060Z,101114.86
2019-03-24T07:00:20.595Z,101114.25
2019-03-24T07:02:50.064Z,101119.27
2019-03-24T07:05:19.544Z,101117.81
2019-03-24T07:07:49.015Z,101112.54
2019-03-24T07:10:18.474Z,101107.06
2019-03-24T07:12:48.003Z,101103.15
2019-03-24T07:15:17.458Z,101099.14
2019-03-24T07:17:46.927Z,101098.02
2019-03-24T07:20:16.774Z,101101.94
2019-03-24T07:22:46.257Z,101094.49
2019-03-24T07:25:15.700Z,101097.06
2019-03-24T07:27:45.207Z,101092.80
2019-03-24T07:30:14.847Z,101106.59
2019-03-24T07:32:44.587Z,101091.45
2019-03-24T07:35:14.044Z,101090.44
2019-03-24T07:37:43.507Z,101091.05
2019-03-24T07:40:13.308Z,101093.27
2019-03-24T07:42:43.124Z,101088.02
2019-03-24T07:45:12.911Z,101086.31
2019-03-24T07:47:42.381Z,101085.18
2019-03-24T07:50:12.456Z,101082.44
2019-03-24T07:52:41.926Z,101082.43
2019-03-24T07:55:11.524Z,101075.34
2019-03-24T07:57:40.988Z,101071.12
2019-03-24T08:00:11.497Z,101067.12
2019-03-24T08:02:50.992Z,101070.05
2019-03-24T08:05:15.471Z,101062.32
2019-03-24T08:07:44.944Z,101057.67
2019-03-24T08:10:14.455Z,101057.05
2019-03-24T08:12:43.950Z,101052.47
2019-03-24T08:15:23.821Z,101058.27
2019-03-24T08:18:11.460Z,101047.42
2019-03-24T08:20:43.900Z,101049.95
2019-03-24T08:23:13.599Z,101046.70
2019-03-24T08:25:43.421Z,101043.07
2019-03-24T08:28:13.246Z,101042.80
2019-03-24T08:30:42.714Z,101042.02
2019-03-24T08:33:12.245Z,101036.32
2019-03-24T08:35:41.695Z,101049.59
2019-03-24T08:38:11.194Z,101043.92
2019-03-24T08:40:40.695Z,101041.19
2019-03-24T08:43:10.164Z,101031.23
2019-03-24T08:45:39.628Z,101036.13
2019-03-24T08:48:09.103Z,101027.16
2019-03-24T08:50:38.555Z,101023.86
2019-03-24T08:53:08.025Z,101020.81
2019-03-24T08:55:37.481Z,101022.41
2019-03-24T08:58:07.226Z,101019.08
2019-03-24T09:00:36.756Z,101018.48
2019-03-24T09:03:06.274Z,101016.66
2019-03-24T09:05:35.737Z,101015.69
2019-03-24T09:08:05.197Z,101006.94
2019-03-24T09:10:34.735Z,101010.67
2019-03-24T09:13:04.207Z,101001.19
2019-03-24T09:15:33.731Z,101003.27
2019-03-24T09:18:03.190Z,101002.28
2019-03-24T09:20:41.314Z,100997.25
2019-03-24T09:23:03.981Z,100998.51
2019-03-24T09:25:33.477Z,101002.16
2019-03-24T09:28:02.992Z,101004.08
2019-03-24T09:30:36.585Z,101002.41
2019-03-24T09:33:06.371Z,101002.06
2019-03-24T09:35:35.913Z,101001.53
2019-03-24T09:38:05.460Z,100999.09
2019-03-24T09:40:35.835Z,100996.71
2019-03-24T09:43:05.886Z,100995.50
2019-03-24T09:45:35.339Z,100995.14
2019-03-24T09:48:05.267Z,100995.69
2019-03-24T09:50:35.080Z,100989.62
2019-03-24T09:53:06.846Z,100983.02
2019-03-24T09:55:38.525Z,100982.82
2019-03-24T09:58:11.684Z,100981.11
2019-03-24T10:00:47.616Z,100981.11
2019-03-24T10:03:15.985Z,100978.88
2019-03-24T10:05:47.297Z,100970.30
2019-03-24T10:08:21.913Z,100964.38
2019-03-24T10:10:51.585Z,100958.61
2019-03-24T10:13:21.045Z,100953.08
2019-03-24T10:15:50.514Z,100938.81
2019-03-24T10:18:19.981Z,100940.40
2019-03-24T10:20:49.454Z,100942.66
2019-03-24T10:23:18.920Z,100938.39
2019-03-24T10:25:48.407Z,100937.75
2019-03-24T10:28:18.232Z,100928.23
2019-03-24T10:30:47.766Z,100926.29
2019-03-24T10:33:17.213Z,100925.89
2019-03-24T10:35:46.683Z,100917.64
2019-03-24T10:38:16.143Z,100914.06
2019-03-24T10:40:45.612Z,100919.47
2019-03-24T10:43:15.089Z,100910.98
2019-03-24T10:45:44.572Z,100913.89
2019-03-24T10:48:14.384Z,100913.06
2019-03-24T10:50:43.862Z,100908.70
2019-03-24T10:53:13.310Z,100909.41
2019-03-24T10:55:43.104Z,100904.70
2019-03-24T10:58:12.631Z,100902.23
2019-03-24T11:00:43.130Z,100902.23
2019-03-24T11:03:12.944Z,100905.09
2019-03-24T11:05:42.429Z,100899.41
2019-03-24T11:08:11.894Z,100897.62
2019-03-24T11:10:41.373Z,100885.64
2019-03-24T11:13:10.838Z,100871.19
2019-03-24T11:15:40.314Z,100870.50
2019-03-24T11:18:09.790Z,100867.73
2019-03-24T11:20:39.599Z,100865.14
2019-03-24T11:23:09.399Z,100863.53
2019-03-24T11:25:38.884Z,100859.72
2019-03-24T11:28:08.337Z,100854.50
2019-03-24T11:30:37.842Z,100854.50
2019-03-24T11:33:07.401Z,100849.05
2019-03-24T11:35:36.861Z,100844.41
2019-03-24T11:38:06.325Z,100832.61
2019-03-24T11:40:35.866Z,100832.61
2019-03-24T11:43:05.417Z,100821.86
2019-03-24T11:45:35.125Z,100821.45
2019-03-24T11:48:04.606Z,100815.09
2019-03-24T11:50:34.091Z,100819.22
2019-03-24T11:53:03.618Z,100819.22
2019-03-24T11:55:33.085Z,100810.02
2019-03-24T11:58:06.135Z,100808.48
2019-03-24T12:00:36.309Z,100802.81
2019-03-24T12:03:05.780Z,100802.81
2019-03-24T12:05:35.250Z,100760.96
2019-03-24T12:08:05.153Z,100789.83
2019-03-24T12:10:34.784Z,100792.48
2019-03-24T12:13:04.246Z,100789.66
2019-03-24T12:15:33.792Z,100789.66
2019-03-24T12:18:03.561Z,100785.74
2019-03-24T12:20:33.233Z,100787.09
2019-03-24T12:23:02.695Z,100780.08
2019-03-24T12:25:32.198Z,100766.52
2019-03-24T12:28:01.660Z,100766.52
2019-03-24T12:30:31.413Z,100773.42
2019-03-24T12:33:00.870Z,100769.45
2019-03-24T12:35:30.367Z,100768.28
2019-03-24T12:37:59.834Z,100765.89
2019-03-24T12:40:29.303Z,100768.20
2019-03-24T12:42:58.782Z,100761.45
2019-03-24T12:45:28.244Z,100762.41
2019-03-24T12:47:57.893Z,100749.47
2019-03-24T12:50:31.689Z,100745.92
2019-03-24T12:52:58.991Z,100747.51
2019-03-24T12:55:28.518Z,100741.69
2019-03-24T12:57:58.057Z,100732.74
2019-03-24T13:00:38.150Z,100726.91
2019-03-24T13:03:07.822Z,100727.70
2019-03-24T13:05:37.337Z,100728.27
2019-03-24T13:08:15.207Z,100724.16
2019-03-24T13:10:45.505Z,100724.16
2019-03-24T13:13:14.958Z,100726.27
2019-03-24T13:15:45.021Z,100726.52
2019-03-24T13:18:14.498Z,100727.95
2019-03-24T13:20:44.229Z,100724.35
2019-03-24T13:23:13.718Z,100723.41
2019-03-24T13:25:43.188Z,100722.81
2019-03-24T13:28:12.754Z,100727.46
2019-03-24T13:30:42.472Z,100724.02
2019-03-24T13:33:11.938Z,100725.55
2019-03-24T13:35:41.565Z,100716.97
2019-03-24T13:38:11.060Z,100715.69
2019-03-24T13:40:40.518Z,100719.88
2019-03-24T13:43:10.036Z,100709.45
2019-03-24T13:45:39.578Z,100708.73
2019-03-24T13:48:09.047Z,100702.48
2019-03-24T13:50:38.504Z,100697.95
2019-03-24T13:53:08.442Z,100699.70
2019-03-24T13:55:37.894Z,100694.63
2019-03-24T13:58:08.241Z,100687.73
2019-03-24T14:00:37.716Z,100694.98
2019-03-24T14:03:07.186Z,100686.32
2019-03-24T14:05:36.658Z,100687.85
2019-03-24T14:08:06.131Z,100682.75
2019-03-24T14:10:35.902Z,100681.05
2019-03-24T14:13:05.379Z,100676.94
2019-03-24T14:15:34.852Z,100673.83
2019-03-24T14:18:04.631Z,100681.70
2019-03-24T14:20:42.766Z,100679.08
2019-03-24T14:23:05.270Z,100675.34
2019-03-24T14:25:34.815Z,100677.39
2019-03-24T14:28:04.297Z,100673.63
2019-03-24T14:30:45.607Z,100673.98
2019-03-24T14:33:15.167Z,100675.05
2019-03-24T14:35:44.633Z,100677.39
2019-03-24T14:38:14.119Z,100669.59
2019-03-24T14:40:43.746Z,100674.06
2019-03-24T14:43:13.622Z,100671.97
2019-03-24T14:45:43.105Z,100664.88
2019-03-24T14:48:12.600Z,100656.65
2019-03-24T14:50:42.078Z,100659.16
2019-03-24T14:53:11.612Z,100645.38
2019-03-24T14:55:41.060Z,100643.13
2019-03-24T14:58:10.527Z,100640.94
2019-03-24T15:00:44.070Z,100639.84
2019-03-24T15:03:13.603Z,100646.33
2019-03-24T15:05:43.564Z,100650.05
2019-03-24T15:08:13.116Z,100652.64
2019-03-24T15:10:42.566Z,100651.58
2019-03-24T15:13:13.419Z,100649.75
2019-03-24T15:15:42.888Z,100655.77
2019-03-24T15:18:12.392Z,100651.16
2019-03-24T15:20:41.859Z,100645.20
2019-03-24T15:23:11.357Z,100647.67
2019-03-24T15:25:41.993Z,100646.06
2019-03-24T15:28:11.550Z,100637.75
2019-03-24T15:30:41.327Z,100640.30
2019-03-24T15:33:10.850Z,100637.12
2019-03-24T15:35:40.302Z,100638.25
2019-03-24T15:38:09.862Z,100638.03
2019-03-24T15:40:39.319Z,100639.38
2019-03-24T15:43:08.887Z,100633.00
2019-03-24T15:45:38.339Z,100628.89
2019-03-24T15:48:07.815Z,100633.45
2019-03-24T15:50:37.291Z,100626.06
2019-03-24T15:53:06.758Z,100628.05
2019-03-24T15:55:36.221Z,100628.48
2019-03-24T15:58:05.956Z,100624.09
2019-03-24T16:00:46.142Z,100612.52
2019-03-24T16:03:15.636Z,100606.93
2019-03-24T16:05:45.444Z,100607.22
2019-03-24T16:08:15.234Z,100597.57
2019-03-24T16:10:44.760Z,100592.32
2019-03-24T16:13:14.480Z,100597.78
2019-03-24T16:15:43.960Z,100605.48
2019-03-24T16:18:13.401Z,100595.84
2019-03-24T16:20:42.872Z,100595.59
2019-03-24T16:23:12.375Z,100596.16
2019-03-24T16:25:41.843Z,100599.16
2019-03-24T16:28:11.337Z,100593.32
2019-03-24T16:30:40.805Z,100594.95
2019-03-24T16:33:16.436Z,100592.97
2019-03-24T16:35:50.577Z,100586.02
2019-03-24T16:38:27.424Z,100585.76
2019-03-24T16:40:56.913Z,100584.83
2019-03-24T16:43:26.835Z,100576.59
2019-03-24T16:45:56.389Z,100579.30
2019-03-24T16:48:36.195Z,100578.86
2019-03-24T16:50:57.115Z,100576.44
2019-03-24T16:53:26.613Z,100578.42
2019-03-24T16:55:56.079Z,100578.91
2019-03-24T16:58:25.744Z,100579.27
2019-03-24T17:00:55.238Z,100577.48
2019-03-24T17:03:24.733Z,100584.61
2019-03-24T17:05:54.198Z,100580.00
2019-03-24T17:08:23.677Z,100579.42
2019-03-24T17:10:53.179Z,100579.86
2019-03-24T17:13:22.686Z,100574.03
2019-03-24T17:15:52.206Z,100579.23
2019-03-24T17:18:21.694Z,100573.48
2019-03-24T17:20:51.182Z,100583.13
2019-03-24T17:23:20.656Z,100574.60
2019-03-24T17:25:50.197Z,100577.66
2019-03-24T17:28:20.036Z,100583.88
2019-03-24T17:30:49.731Z,100576.94
2019-03-24T17:33:19.225Z,100580.38
2019-03-24T17:35:48.708Z,100586.02
2019-03-24T17:38:18.184Z,100585.59
2019-03-24T17:40:47.639Z,100587.95
2019-03-24T17:43:17.374Z,100587.01
2019-03-24T17:45:46.847Z,100585.50
2019-03-24T17:48:16.369Z,100586.84
2019-03-24T17:50:45.873Z,100588.34
2019-03-24T17:53:15.344Z,100585.92
2019-03-24T17:55:44.796Z,100585.83
2019-03-24T17:58:14.269Z,100588.59
2019-03-24T18:00:46.623Z,100580.09
2019-03-24T18:03:16.117Z,100571.45
2019-03-24T18:05:45.731Z,100571.02
2019-03-24T18:08:15.224Z,100569.70
2019-03-24T18:10:44.680Z,100566.00
2019-03-24T18:13:14.315Z,100567.39
2019-03-24T18:15:43.789Z,100562.95
2019-03-24T18:18:13.274Z,100566.30
2019-03-24T18:20:43.128Z,100571.55
2019-03-24T18:23:13.607Z,100564.50
2019-03-24T18:25:43.113Z,100568.55
2019-03-24T18:28:12.994Z,100564.52
2019-03-24T18:30:42.542Z,100561.73
2019-03-24T18:33:12.032Z,100560.63
2019-03-24T18:35:41.499Z,100554.55
2019-03-24T18:38:11.037Z,100552.26
2019-03-24T18:40:40.774Z,100559.42
2019-03-24T18:43:10.227Z,100554.53
2019-03-24T18:45:39.692Z,100555.13
2019-03-24T18:48:09.650Z,100556.47
2019-03-24T18:50:39.129Z,100550.11
2019-03-24T18:53:12.726Z,100554.84
2019-03-24T18:55:42.191Z,100551.70
2019-03-24T18:58:11.671Z,100554.65
2019-03-24T19:00:41.210Z,100548.92
2019-03-24T19:03:10.666Z,100539.81
2019-03-24T19:05:40.247Z,100546.52
2019-03-24T19:08:09.709Z,100545.66
2019-03-24T19:10:39.214Z,100541.77
2019-03-24T19:13:08.674Z,100541.53
2019-03-24T19:15:38.139Z,100541.55
2019-03-24T19:18:07.590Z,100538.86
2019-03-24T19:20:37.431Z,100539.44
2019-03-24T19:23:06.940Z,100539.81
2019-03-24T19:25:36.501Z,100536.38
2019-03-24T19:28:06.263Z,100537.10
2019-03-24T19:30:37.641Z,100534.44
2019-03-24T19:33:07.149Z,100531.38
2019-03-24T19:35:36.778Z,100531.84
2019-03-24T19:38:06.281Z,100533.05
2019-03-24T19:40:35.995Z,100538.28
2019-03-24T19:43:05.688Z,100533.54
2019-03-24T19:45:36.901Z,100524.55
2019-03-24T19:48:06.484Z,100519.80
2019-03-24T19:50:36.028Z,100529.78
2019-03-24T19:53:05.741Z,100521.64
2019-03-24T19:55:35.248Z,100524.31
2019-03-24T19:58:05.090Z,100519.44
2019-03-24T20:00:34.554Z,100513.23
2019-03-24T20:03:04.399Z,100514.22
2019-03-24T20:05:33.921Z,100514.25
2019-03-24T20:08:03.366Z,100509.73
2019-03-24T20:10:32.843Z,100512.20
2019-03-24T20:13:02.294Z,100511.95
2019-03-24T20:15:31.850Z,100505.27
2019-03-24T20:18:01.649Z,100502.33
2019-03-24T20:20:31.137Z,100494.44
2019-03-24T20:23:00.622Z,100492.09
2019-03-24T20:25:30.091Z,100490.01
2019-03-24T20:27:59.802Z,100487.47
2019-03-24T20:30:29.272Z,100490.86
2019-03-24T20:33:02.174Z,100494.52
2019-03-24T20:35:34.670Z,100492.69
2019-03-24T20:38:12.581Z,100480.91
2019-03-24T20:40:52.670Z,100480.56
2019-03-24T20:43:30.377Z,100474.70
2019-03-24T20:46:20.186Z,100479.56
2019-03-24T20:48:43.623Z,100469.86
2019-03-24T20:51:18.378Z,100478.47
2019-03-24T20:53:53.888Z,100481.34
2019-03-24T20:56:30.293Z,100474.83
2019-03-24T20:59:09.169Z,100467.75
2019-03-24T21:01:40.460Z,100472.44
2019-03-24T21:04:09.936Z,100467.99
2019-03-24T21:06:39.392Z,100469.59
2019-03-24T21:09:09.546Z,100467.13
2019-03-24T21:11:39.027Z,100464.42
2019-03-24T21:14:08.770Z,100460.52
2019-03-24T21:16:38.507Z,100454.97
2019-03-24T21:19:08.396Z,100448.81
2019-03-24T21:21:37.868Z,100448.22
2019-03-24T21:24:07.329Z,100443.84
2019-03-24T21:26:36.826Z,100443.17
2019-03-24T21:29:06.313Z,100446.65
2019-03-24T21:31:35.754Z,100445.97
2019-03-24T21:34:05.225Z,100450.52
2019-03-24T21:36:35.258Z,100452.92
2019-03-24T21:39:07.044Z,100452.08
2019-03-24T21:41:36.686Z,100451.38
2019-03-24T21:44:06.145Z,100441.80
2019-03-24T21:46:35.618Z,100435.94
2019-03-24T21:49:05.101Z,100434.23
2019-03-24T21:51:34.599Z,100426.16
2019-03-24T21:54:04.045Z,100427.03
2019-03-24T21:56:33.591Z,100430.50
2019-03-24T21:59:03.361Z,100425.03
2019-03-24T22:01:33.005Z,100423.09
2019-03-24T22:04:02.465Z,100429.92
2019-03-24T22:06:31.965Z,100423.48
2019-03-24T22:09:01.420Z,100420.22
2019-03-24T22:11:31.182Z,100416.47
2019-03-24T22:14:00.631Z,100416.72
2019-03-24T22:16:30.432Z,100417.31
2019-03-24T22:18:59.905Z,100423.86
2019-03-24T22:21:29.370Z,100415.00
2019-03-24T22:23:58.986Z,100417.55
2019-03-24T22:26:28.450Z,100413.91
2019-03-24T22:28:57.923Z,100408.56
2019-03-24T22:31:27.404Z,100405.64
2019-03-24T22:33:56.866Z,100408.44
2019-03-24T22:36:26.333Z,100412.08
2019-03-24T22:38:55.793Z,100407.22
2019-03-24T22:41:25.340Z,100404.66
2019-03-24T22:43:54.796Z,100397.19
2019-03-24T22:46:24.269Z,100399.97
2019-03-24T22:48:53.904Z,100397.52
2019-03-24T22:51:23.384Z,100392.74
2019-03-24T22:54:03.016Z,100394.17
2019-03-24T22:56:24.042Z,100386.23
2019-03-24T22:58:53.523Z,100375.27
2019-03-24T23:01:23.277Z,100379.50
2019-03-24T23:03:52.738Z,100383.47
2019-03-24T23:06:22.202Z,100376.66
2019-03-24T23:08:51.726Z,100375.36
2019-03-24T23:11:21.220Z,100368.34
2019-03-24T23:13:50.689Z,100368.69
2019-03-24T23:16:20.208Z,100365.34
2019-03-24T23:18:49.666Z,100359.52
2019-03-24T23:21:19.136Z,100356.03
2019-03-24T23:23:48.619Z,100348.87
2019-03-24T23:26:18.105Z,100343.91
2019-03-24T23:28:47.727Z,100342.69
2019-03-24T23:31:17.459Z,100338.31
2019-03-24T23:33:46.916Z,100333.56
2019-03-24T23:36:16.387Z,100334.82
2019-03-24T23:38:45.842Z,100333.26
2019-03-24T23:41:15.316Z,100329.00
2019-03-24T23:43:44.817Z,100327.55
2019-03-24T23:46:14.277Z,100324.77
2019-03-24T23:48:44.073Z,100329.19
2019-03-24T23:51:13.558Z,100334.77
2019-03-24T23:53:43.024Z,100326.69
2019-03-24T23:56:12.521Z,100328.30
2019-03-24T23:58:41.988Z,100327.55
